Tomi II — YT2177 — position and weather

sailwx.info

Track history (hours):
 
Tides and Currents Weather Stations Pressure Air Temp Water Temp Dewpoint Dewpoint Depression Visibility Wind Speed Wind Dir Waves Ship Positions

Tomi II

Last reported at 2018-Feb-18 01:30 UTC. Time now 2018-Feb-18 05:21 UTC.
Position N 44°42' E 020°58'.

Length 25 m; draft 1.1 m.

Type: Cargo ship. MMSI: 279202177.

Date/timePositionNaut miles runAvg speedWind from/ knotsBaromVisibWave heightAir tempDewpointWater temp
2018-Feb-18 01:30N 44°42' E 020°58'0 0.3
2018-Feb-18 01:00N 44°42' E 020°58'1 0.2
2018-Feb-17 20:48N 44°41' E 020°57'2 5.4
2018-Feb-17 20:30N 44°40' E 020°55'0 0.0
2018-Feb-17 17:40N 44°40' E 020°55'0 0.0
2018-Feb-17 15:01N 44°40' E 020°55'0 0.0
2018-Feb-17 15:00N 44°40' E 020°55'0 0.7
2018-Feb-17 14:30N 44°40' E 020°56'1 2.2
2018-Feb-17 14:00N 44°41' E 020°57'1 0.1
2018-Feb-17 07:27N 44°42' E 020°57'0 0.8
2018-Feb-17 07:00N 44°42' E 020°58'0 0.2
2018-Feb-17 06:17N 44°42' E 020°58'1 0.1
2018-Feb-16 21:34N 44°41' E 020°57'0 2.5
2018-Feb-16 21:31N 44°41' E 020°57'1 2.4
2018-Feb-16 21:00N 44°40' E 020°55'0 0.3
2018-Feb-16 20:30N 44°40' E 020°55'0 0.9
2018-Feb-16 20:00N 44°40' E 020°55'1 2.0
2018-Feb-16 19:30N 44°40' E 020°53'1 2.1
2018-Feb-16 19:00N 44°40' E 020°55'0 0.1
2018-Feb-16 14:40N 44°40' E 020°55'0 1.8
2018-Feb-16 14:30N 44°40' E 020°55'1 2.3
2018-Feb-16 13:58N 44°41' E 020°57'1 2.3
2018-Feb-16 13:31N 44°42' E 020°58'0 0.3
2018-Feb-16 13:01N 44°42' E 020°58'1 0.1
2018-Feb-16 03:26N 44°41' E 020°57'1 0.6
2018-Feb-16 02:32N 44°42' E 020°58'0 0.4
2018-Feb-16 02:22N 44°42' E 020°58'1 0.1
2018-Feb-15 20:30N 44°41' E 020°57'1 2.5
2018-Feb-15 20:01N 44°42' E 020°58'0 0.6
2018-Feb-15 19:31N 44°42' E 020°58'1 0.3
2018-Feb-15 16:00N 44°41' E 020°57'1 2.6
2018-Feb-15 15:30N 44°42' E 020°58'0 0.7
2018-Feb-15 15:00N 44°42' E 020°58'1 1.9
2018-Feb-15 14:31N 44°41' E 020°57'0 0.0
2018-Feb-15 11:28N 44°41' E 020°57'0 0.2
2018-Feb-15 10:29N 44°41' E 020°57'0 0.4
2018-Feb-15 09:59N 44°41' E 020°57'1 2.8
2018-Feb-15 09:30N 44°40' E 020°55'0 0.0
2018-Feb-15 09:01N 44°40' E 020°55'2 0.5
2018-Feb-15 04:21N 44°42' E 020°58'0 0.0
2018-Feb-15 03:41N 44°42' E 020°58'0 0.2
2018-Feb-15 03:29N 44°42' E 020°58'1 0.1
2018-Feb-14 17:58N 44°41' E 020°57'0 0.1
2018-Feb-14 17:30N 44°41' E 020°57'1 1.7
2018-Feb-14 17:00N 44°42' E 020°58'0 0.6
2018-Feb-14 16:30N 44°42' E 020°58'1 1.0
2018-Feb-14 16:00N 44°42' E 020°57'1 0.7
2018-Feb-14 15:03N 44°41' E 020°57'0 1.3
2018-Feb-14 15:00N 44°41' E 020°57'1 0.1
2018-Feb-14 10:46N 44°42' E 020°57'0 1.3
2018-Feb-14 10:30N 44°42' E 020°58'0 0.2
2018-Feb-14 09:57N 44°42' E 020°58'1 0.1
2018-Feb-14 03:14N 44°41' E 020°57'1 2.4
2018-Feb-14 03:00N 44°42' E 020°58'0 0.2
2018-Feb-14 02:24N 44°42' E 020°57'1 0.2
2018-Feb-13 21:03N 44°41' E 020°57'0 0.4
2018-Feb-13 21:00N 44°41' E 020°57'1 2.2
2018-Feb-13 20:31N 44°42' E 020°58'1 1.7
2018-Feb-13 20:00N 44°41' E 020°57'0 0.1
2018-Feb-13 15:12N 44°41' E 020°57'1 3.9
2018-Feb-13 15:00N 44°42' E 020°57'0 0.2
2018-Feb-13 14:30N 44°42' E 020°57'0 0.1
2018-Feb-13 11:56N 44°42' E 020°58'0 0.5
2018-Feb-13 11:30N 44°42' E 020°57'0 0.0
2018-Feb-13 05:00N 44°42' E 020°58'0 0.1
2018-Feb-13 04:29N 44°42' E 020°58'0 0.0
2018-Feb-13 02:39N 44°42' E 020°58'0 0.2
2018-Feb-13 02:29N 44°42' E 020°58'0 0.1
2018-Feb-13 01:53N 44°42' E 020°58'1 0.2
2018-Feb-12 21:30N 44°41' E 020°57'1 2.0
2018-Feb-12 21:00N 44°42' E 020°58'1 1.5
2018-Feb-12 20:31N 44°42' E 020°58'1 1.5
2018-Feb-12 20:00N 44°42' E 020°58'1 0.2
2018-Feb-12 16:12N 44°41' E 020°57'0 0.4
2018-Feb-12 16:01N 44°41' E 020°57'1 1.4
2018-Feb-12 15:30N 44°42' E 020°57'2 4.7
2018-Feb-12 15:00N 44°40' E 020°55'0 0.0
2018-Feb-12 13:37N 44°40' E 020°55'0 0.1
2018-Feb-12 13:30N 44°40' E 020°55'2 3.5
2018-Feb-12 13:00N 44°41' E 020°57'0 0.3
2018-Feb-12 12:31N 44°41' E 020°57'0 0.1
2018-Feb-12 12:01N 44°41' E 020°57'0 0.3
2018-Feb-12 10:39N 44°41' E 020°57'0 2.1
2018-Feb-12 10:31N 44°41' E 020°57'0 0.0
2018-Feb-12 06:39N 44°41' E 020°57'1 4.4
2018-Feb-12 06:30N 44°42' E 020°58'0 0.1
2018-Feb-12 05:59N 44°42' E 020°58'1 0.1
2018-Feb-11 21:14N 44°41' E 020°57'1 3.8
2018-Feb-11 21:00N 44°42' E 020°58'1 1.0
2018-Feb-11 20:30N 44°42' E 020°58'0 0.3
2018-Feb-11 20:00N 44°42' E 020°58'0 0.2
2018-Feb-11 19:31N 44°42' E 020°58'1 2.4
2018-Feb-11 19:00N 44°41' E 020°57'1 0.1
2018-Feb-11 13:01N 44°42' E 020°57'0 1.1
2018-Feb-11 12:53N 44°42' E 020°58'0 0.3
2018-Feb-11 12:26N 44°42' E 020°58'0 0.3
2018-Feb-11 11:06N 44°42' E 020°57'0 4.4
2018-Feb-11 11:01N 44°42' E 020°58'1 1.4
2018-Feb-11 10:29N 44°42' E 020°58'0 0.1
2018-Feb-11 09:58N 44°42' E 020°58'1 1.7
2018-Feb-11 09:30N 44°42' E 020°58'1 0.1
2018-Feb-10 22:20N 44°41' E 020°57'1 2.9
2018-Feb-10 22:00N 44°42' E 020°58'0 0.8
2018-Feb-10 21:30N 44°42' E 020°58'0 0.8
2018-Feb-10 21:00N 44°42' E 020°58'1 0.3
2018-Feb-10 18:09N 44°41' E 020°57'0 0.8
2018-Feb-10 18:00N 44°41' E 020°57'2 1.7
2018-Feb-10 17:02N 44°40' E 020°55'0 0.3
2018-Feb-10 17:01N 44°40' E 020°55'0 0.2
2018-Feb-10 16:30N 44°40' E 020°55'0 0.0
2018-Feb-10 16:00N 44°40' E 020°55'0 0.1
2018-Feb-10 14:16N 44°40' E 020°55'1 3.7
2018-Feb-10 14:00N 44°41' E 020°56'1 1.6
2018-Feb-10 13:30N 44°41' E 020°57'1 2.1
2018-Feb-10 13:01N 44°42' E 020°58'0 0.1
2018-Feb-10 12:30N 44°42' E 020°58'1 0.6
2018-Feb-10 11:04N 44°42' E 020°57'0 4.2
2018-Feb-10 10:58N 44°42' E 020°58'1 1.0
2018-Feb-10 10:25N 44°42' E 020°58'1 0.1
2018-Feb-10 01:08N 44°42' E 020°57'0 2.8
2018-Feb-10 01:00N 44°42' E 020°58'0 0.2
2018-Feb-09 23:55N 44°42' E 020°58'0 0.0
2018-Feb-09 15:31N 44°42' E 020°58'1 0.0
2018-Feb-08 17:30N 44°41' E 020°57'1 2.1
2018-Feb-08 17:00N 44°42' E 020°58'0 0.7
2018-Feb-08 16:30N 44°42' E 020°58'1 0.4
2018-Feb-08 15:00N 44°41' E 020°57'1 0.6
2018-Feb-08 13:30N 44°42' E 020°58'1 0.3
2018-Feb-08 10:00N 44°41' E 020°57'  
Track history (hours):
 
Tides and Currents Weather Stations Pressure Air Temp Water Temp Dewpoint Dewpoint Depression Visibility Wind Speed Wind Dir Waves Ship Positions

Tomi II

Last reported at 2018-Feb-18 01:30 UTC. Time now 2018-Feb-18 05:21 UTC.
Position N 44°42' E 020°58'.

Length 25 m; draft 1.1 m.

Type: Cargo ship. MMSI: 279202177.

Date/timePositionNaut miles runAvg speedWind from/ knotsBaromVisibWave heightAir tempDewpointWater temp
2018-Feb-18 01:30N 44°42' E 020°58'0 0.3
2018-Feb-18 01:00N 44°42' E 020°58'1 0.2
2018-Feb-17 20:48N 44°41' E 020°57'2 5.4
2018-Feb-17 20:30N 44°40' E 020°55'0 0.0
2018-Feb-17 17:40N 44°40' E 020°55'0 0.0
2018-Feb-17 15:01N 44°40' E 020°55'0 0.0
2018-Feb-17 15:00N 44°40' E 020°55'0 0.7
2018-Feb-17 14:30N 44°40' E 020°56'1 2.2
2018-Feb-17 14:00N 44°41' E 020°57'1 0.1
2018-Feb-17 07:27N 44°42' E 020°57'0 0.8
2018-Feb-17 07:00N 44°42' E 020°58'0 0.2
2018-Feb-17 06:17N 44°42' E 020°58'1 0.1
2018-Feb-16 21:34N 44°41' E 020°57'0 2.5
2018-Feb-16 21:31N 44°41' E 020°57'1 2.4
2018-Feb-16 21:00N 44°40' E 020°55'0 0.3
2018-Feb-16 20:30N 44°40' E 020°55'0 0.9
2018-Feb-16 20:00N 44°40' E 020°55'1 2.0
2018-Feb-16 19:30N 44°40' E 020°53'1 2.1
2018-Feb-16 19:00N 44°40' E 020°55'0 0.1
2018-Feb-16 14:40N 44°40' E 020°55'0 1.8
2018-Feb-16 14:30N 44°40' E 020°55'1 2.3
2018-Feb-16 13:58N 44°41' E 020°57'1 2.3
2018-Feb-16 13:31N 44°42' E 020°58'0 0.3
2018-Feb-16 13:01N 44°42' E 020°58'1 0.1
2018-Feb-16 03:26N 44°41' E 020°57'1 0.6
2018-Feb-16 02:32N 44°42' E 020°58'0 0.4
2018-Feb-16 02:22N 44°42' E 020°58'1 0.1
2018-Feb-15 20:30N 44°41' E 020°57'1 2.5
2018-Feb-15 20:01N 44°42' E 020°58'0 0.6
2018-Feb-15 19:31N 44°42' E 020°58'1 0.3
2018-Feb-15 16:00N 44°41' E 020°57'1 2.6
2018-Feb-15 15:30N 44°42' E 020°58'0 0.7
2018-Feb-15 15:00N 44°42' E 020°58'1 1.9
2018-Feb-15 14:31N 44°41' E 020°57'0 0.0
2018-Feb-15 11:28N 44°41' E 020°57'0 0.2
2018-Feb-15 10:29N 44°41' E 020°57'0 0.4
2018-Feb-15 09:59N 44°41' E 020°57'1 2.8
2018-Feb-15 09:30N 44°40' E 020°55'0 0.0
2018-Feb-15 09:01N 44°40' E 020°55'2 0.5
2018-Feb-15 04:21N 44°42' E 020°58'0 0.0
2018-Feb-15 03:41N 44°42' E 020°58'0 0.2
2018-Feb-15 03:29N 44°42' E 020°58'1 0.1
2018-Feb-14 17:58N 44°41' E 020°57'0 0.1
2018-Feb-14 17:30N 44°41' E 020°57'1 1.7
2018-Feb-14 17:00N 44°42' E 020°58'0 0.6
2018-Feb-14 16:30N 44°42' E 020°58'1 1.0
2018-Feb-14 16:00N 44°42' E 020°57'1 0.7
2018-Feb-14 15:03N 44°41' E 020°57'0 1.3
2018-Feb-14 15:00N 44°41' E 020°57'1 0.1
2018-Feb-14 10:46N 44°42' E 020°57'0 1.3
2018-Feb-14 10:30N 44°42' E 020°58'0 0.2
2018-Feb-14 09:57N 44°42' E 020°58'1 0.1
2018-Feb-14 03:14N 44°41' E 020°57'1 2.4
2018-Feb-14 03:00N 44°42' E 020°58'0 0.2
2018-Feb-14 02:24N 44°42' E 020°57'1 0.2
2018-Feb-13 21:03N 44°41' E 020°57'0 0.4
2018-Feb-13 21:00N 44°41' E 020°57'1 2.2
2018-Feb-13 20:31N 44°42' E 020°58'1 1.7
2018-Feb-13 20:00N 44°41' E 020°57'0 0.1
2018-Feb-13 15:12N 44°41' E 020°57'1 3.9
2018-Feb-13 15:00N 44°42' E 020°57'0 0.2
2018-Feb-13 14:30N 44°42' E 020°57'0 0.1
2018-Feb-13 11:56N 44°42' E 020°58'0 0.5
2018-Feb-13 11:30N 44°42' E 020°57'0 0.0
2018-Feb-13 05:00N 44°42' E 020°58'0 0.1
2018-Feb-13 04:29N 44°42' E 020°58'0 0.0
2018-Feb-13 02:39N 44°42' E 020°58'0 0.2
2018-Feb-13 02:29N 44°42' E 020°58'0 0.1
2018-Feb-13 01:53N 44°42' E 020°58'1 0.2
2018-Feb-12 21:30N 44°41' E 020°57'1 2.0
2018-Feb-12 21:00N 44°42' E 020°58'1 1.5
2018-Feb-12 20:31N 44°42' E 020°58'1 1.5
2018-Feb-12 20:00N 44°42' E 020°58'1 0.2
2018-Feb-12 16:12N 44°41' E 020°57'0 0.4
2018-Feb-12 16:01N 44°41' E 020°57'1 1.4
2018-Feb-12 15:30N 44°42' E 020°57'2 4.7
2018-Feb-12 15:00N 44°40' E 020°55'0 0.0
2018-Feb-12 13:37N 44°40' E 020°55'0 0.1
2018-Feb-12 13:30N 44°40' E 020°55'2 3.5
2018-Feb-12 13:00N 44°41' E 020°57'0 0.3
2018-Feb-12 12:31N 44°41' E 020°57'0 0.1
2018-Feb-12 12:01N 44°41' E 020°57'0 0.3
2018-Feb-12 10:39N 44°41' E 020°57'0 2.1
2018-Feb-12 10:31N 44°41' E 020°57'0 0.0
2018-Feb-12 06:39N 44°41' E 020°57'1 4.4
2018-Feb-12 06:30N 44°42' E 020°58'0 0.1
2018-Feb-12 05:59N 44°42' E 020°58'1 0.1
2018-Feb-11 21:14N 44°41' E 020°57'1 3.8
2018-Feb-11 21:00N 44°42' E 020°58'1 1.0
2018-Feb-11 20:30N 44°42' E 020°58'0 0.3
2018-Feb-11 20:00N 44°42' E 020°58'0 0.2
2018-Feb-11 19:31N 44°42' E 020°58'1 2.4
2018-Feb-11 19:00N 44°41' E 020°57'1 0.1
2018-Feb-11 13:01N 44°42' E 020°57'0 1.1
2018-Feb-11 12:53N 44°42' E 020°58'0 0.3
2018-Feb-11 12:26N 44°42' E 020°58'0 0.3
2018-Feb-11 11:06N 44°42' E 020°57'0 4.4
2018-Feb-11 11:01N 44°42' E 020°58'1 1.4
2018-Feb-11 10:29N 44°42' E 020°58'0 0.1
2018-Feb-11 09:58N 44°42' E 020°58'1 1.7
2018-Feb-11 09:30N 44°42' E 020°58'1 0.1
2018-Feb-10 22:20N 44°41' E 020°57'1 2.9
2018-Feb-10 22:00N 44°42' E 020°58'0 0.8
2018-Feb-10 21:30N 44°42' E 020°58'0 0.8
2018-Feb-10 21:00N 44°42' E 020°58'1 0.3
2018-Feb-10 18:09N 44°41' E 020°57'0 0.8
2018-Feb-10 18:00N 44°41' E 020°57'2 1.7
2018-Feb-10 17:02N 44°40' E 020°55'0 0.3
2018-Feb-10 17:01N 44°40' E 020°55'0 0.2
2018-Feb-10 16:30N 44°40' E 020°55'0 0.0
2018-Feb-10 16:00N 44°40' E 020°55'0 0.1
2018-Feb-10 14:16N 44°40' E 020°55'1 3.7
2018-Feb-10 14:00N 44°41' E 020°56'1 1.6
2018-Feb-10 13:30N 44°41' E 020°57'1 2.1
2018-Feb-10 13:01N 44°42' E 020°58'0 0.1
2018-Feb-10 12:30N 44°42' E 020°58'1 0.6
2018-Feb-10 11:04N 44°42' E 020°57'0 4.2
2018-Feb-10 10:58N 44°42' E 020°58'1 1.0
2018-Feb-10 10:25N 44°42' E 020°58'1 0.1
2018-Feb-10 01:08N 44°42' E 020°57'0 2.8
2018-Feb-10 01:00N 44°42' E 020°58'0 0.2
2018-Feb-09 23:55N 44°42' E 020°58'0 0.0
2018-Feb-09 15:31N 44°42' E 020°58'1 0.0
2018-Feb-08 17:30N 44°41' E 020°57'1 2.1
2018-Feb-08 17:00N 44°42' E 020°58'0 0.7
2018-Feb-08 16:30N 44°42' E 020°58'1 0.4
2018-Feb-08 15:00N 44°41' E 020°57'1 0.6
2018-Feb-08 13:30N 44°42' E 020°58'1 0.3
2018-Feb-08 10:00N 44°41' E 020°57'  

Dump ship's entire track history